sensor_id;sensor_type;location;lat;lon;timestamp;P1;durP1;ratioP1;P2;durP2;ratioP2
24617;SDS011;12762;51.730;5.356;2022-10-16T00:01:33;8.77;;;2.13;;
24617;SDS011;12762;51.730;5.356;2022-10-16T00:04:02;4.73;;;2.30;;
24617;SDS011;12762;51.730;5.356;2022-10-16T00:06:30;4.67;;;2.27;;
24617;SDS011;12762;51.730;5.356;2022-10-16T00:08:57;6.27;;;2.00;;
24617;SDS011;12762;51.730;5.356;2022-10-16T00:11:26;3.83;;;2.13;;
24617;SDS011;12762;51.730;5.356;2022-10-16T00:14:00;4.33;;;2.10;;
24617;SDS011;12762;51.730;5.356;2022-10-16T00:16:28;3.10;;;1.90;;
24617;SDS011;12762;51.730;5.356;2022-10-16T00:18:58;6.17;;;2.33;;
24617;SDS011;12762;51.730;5.356;2022-10-16T00:21:26;5.63;;;2.53;;
24617;SDS011;12762;51.730;5.356;2022-10-16T00:23:59;8.53;;;2.60;;
24617;SDS011;12762;51.730;5.356;2022-10-16T00:26:28;3.47;;;2.30;;
24617;SDS011;12762;51.730;5.356;2022-10-16T00:28:59;8.73;;;2.60;;
24617;SDS011;12762;51.730;5.356;2022-10-16T00:31:26;6.27;;;2.33;;
24617;SDS011;12762;51.730;5.356;2022-10-16T00:33:54;5.27;;;2.67;;
24617;SDS011;12762;51.730;5.356;2022-10-16T00:36:22;6.07;;;2.43;;
24617;SDS011;12762;51.730;5.356;2022-10-16T00:38:50;5.93;;;2.50;;
24617;SDS011;12762;51.730;5.356;2022-10-16T00:41:20;6.23;;;2.60;;
24617;SDS011;12762;51.730;5.356;2022-10-16T00:43:49;6.37;;;2.63;;
24617;SDS011;12762;51.730;5.356;2022-10-16T00:46:40;9.20;;;3.10;;
24617;SDS011;12762;51.730;5.356;2022-10-16T00:49:14;3.57;;;2.33;;
24617;SDS011;12762;51.730;5.356;2022-10-16T00:51:49;6.83;;;2.37;;
24617;SDS011;12762;51.730;5.356;2022-10-16T00:54:21;6.07;;;2.40;;
24617;SDS011;12762;51.730;5.356;2022-10-16T00:56:52;5.47;;;2.67;;
24617;SDS011;12762;51.730;5.356;2022-10-16T00:59:25;4.87;;;3.00;;
24617;SDS011;12762;51.730;5.356;2022-10-16T01:02:13;4.40;;;2.40;;
24617;SDS011;12762;51.730;5.356;2022-10-16T01:04:42;6.03;;;3.00;;
24617;SDS011;12762;51.730;5.356;2022-10-16T01:10:14;3.97;;;2.30;;
24617;SDS011;12762;51.730;5.356;2022-10-16T01:12:57;5.10;;;2.40;;
24617;SDS011;12762;51.730;5.356;2022-10-16T01:15:53;5.90;;;2.40;;
24617;SDS011;12762;51.730;5.356;2022-10-16T01:18:28;5.67;;;2.47;;
24617;SDS011;12762;51.730;5.356;2022-10-16T01:21:04;6.37;;;2.70;;
24617;SDS011;12762;51.730;5.356;2022-10-16T01:26:37;6.27;;;2.67;;
24617;SDS011;12762;51.730;5.356;2022-10-16T01:29:15;5.83;;;2.50;;
24617;SDS011;12762;51.730;5.356;2022-10-16T01:31:44;5.17;;;2.73;;
24617;SDS011;12762;51.730;5.356;2022-10-16T01:34:18;5.10;;;2.40;;
24617;SDS011;12762;51.730;5.356;2022-10-16T01:36:56;6.40;;;2.20;;
24617;SDS011;12762;51.730;5.356;2022-10-16T01:39:36;5.53;;;2.40;;
24617;SDS011;12762;51.730;5.356;2022-10-16T01:42:16;6.03;;;2.37;;
24617;SDS011;12762;51.730;5.356;2022-10-16T01:44:48;5.40;;;2.37;;
24617;SDS011;12762;51.730;5.356;2022-10-16T01:47:17;6.67;;;2.33;;
24617;SDS011;12762;51.730;5.356;2022-10-16T01:49:48;4.60;;;2.53;;
24617;SDS011;12762;51.730;5.356;2022-10-16T01:52:22;7.73;;;2.37;;
24617;SDS011;12762;51.730;5.356;2022-10-16T01:54:52;6.40;;;2.57;;
24617;SDS011;12762;51.730;5.356;2022-10-16T01:57:21;5.50;;;2.33;;
24617;SDS011;12762;51.730;5.356;2022-10-16T01:59:50;2.93;;;1.97;;
24617;SDS011;12762;51.730;5.356;2022-10-16T02:02:23;3.80;;;2.10;;
24617;SDS011;12762;51.730;5.356;2022-10-16T02:04:56;5.77;;;2.10;;
24617;SDS011;12762;51.730;5.356;2022-10-16T02:07:28;5.97;;;2.33;;
24617;SDS011;12762;51.730;5.356;2022-10-16T02:09:55;3.73;;;2.00;;
24617;SDS011;12762;51.730;5.356;2022-10-16T02:12:26;6.27;;;2.50;;
24617;SDS011;12762;51.730;5.356;2022-10-16T02:14:56;4.43;;;1.90;;
24617;SDS011;12762;51.730;5.356;2022-10-16T02:17:26;4.50;;;2.30;;
24617;SDS011;12762;51.730;5.356;2022-10-16T02:19:54;2.73;;;1.63;;
24617;SDS011;12762;51.730;5.356;2022-10-16T02:22:27;3.60;;;1.80;;
24617;SDS011;12762;51.730;5.356;2022-10-16T02:24:57;4.27;;;1.83;;
24617;SDS011;12762;51.730;5.356;2022-10-16T02:27:33;5.67;;;2.43;;
24617;SDS011;12762;51.730;5.356;2022-10-16T02:30:07;3.00;;;1.80;;
24617;SDS011;12762;51.730;5.356;2022-10-16T02:32:40;2.63;;;1.80;;
24617;SDS011;12762;51.730;5.356;2022-10-16T02:35:11;4.57;;;1.90;;
24617;SDS011;12762;51.730;5.356;2022-10-16T02:37:38;2.43;;;1.60;;
24617;SDS011;12762;51.730;5.356;2022-10-16T02:40:07;2.90;;;1.90;;
24617;SDS011;12762;51.730;5.356;2022-10-16T02:42:38;3.80;;;2.00;;
24617;SDS011;12762;51.730;5.356;2022-10-16T02:45:07;3.10;;;1.93;;
24617;SDS011;12762;51.730;5.356;2022-10-16T02:47:36;3.63;;;2.07;;
24617;SDS011;12762;51.730;5.356;2022-10-16T02:50:03;3.33;;;1.80;;
24617;SDS011;12762;51.730;5.356;2022-10-16T02:52:30;3.63;;;1.70;;
24617;SDS011;12762;51.730;5.356;2022-10-16T02:54:57;4.87;;;1.70;;
24617;SDS011;12762;51.730;5.356;2022-10-16T02:57:23;4.00;;;1.97;;
24617;SDS011;12762;51.730;5.356;2022-10-16T02:59:51;2.63;;;1.57;;
24617;SDS011;12762;51.730;5.356;2022-10-16T03:02:18;6.07;;;1.83;;
24617;SDS011;12762;51.730;5.356;2022-10-16T03:04:45;2.53;;;1.50;;
24617;SDS011;12762;51.730;5.356;2022-10-16T03:07:11;3.40;;;1.70;;
24617;SDS011;12762;51.730;5.356;2022-10-16T03:09:38;3.00;;;1.40;;
24617;SDS011;12762;51.730;5.356;2022-10-16T03:12:05;2.90;;;1.40;;
24617;SDS011;12762;51.730;5.356;2022-10-16T03:14:32;4.57;;;1.60;;
24617;SDS011;12762;51.730;5.356;2022-10-16T03:16:59;2.03;;;1.47;;
24617;SDS011;12762;51.730;5.356;2022-10-16T03:19:26;3.03;;;1.73;;
24617;SDS011;12762;51.730;5.356;2022-10-16T03:21:53;4.33;;;1.80;;
24617;SDS011;12762;51.730;5.356;2022-10-16T03:24:20;2.33;;;1.60;;
24617;SDS011;12762;51.730;5.356;2022-10-16T03:26:46;3.23;;;1.50;;
24617;SDS011;12762;51.730;5.356;2022-10-16T03:29:13;4.27;;;1.80;;
24617;SDS011;12762;51.730;5.356;2022-10-16T03:31:40;5.10;;;1.87;;
24617;SDS011;12762;51.730;5.356;2022-10-16T03:34:07;4.23;;;1.80;;
24617;SDS011;12762;51.730;5.356;2022-10-16T03:36:34;2.97;;;1.83;;
24617;SDS011;12762;51.730;5.356;2022-10-16T03:39:06;4.33;;;1.60;;
24617;SDS011;12762;51.730;5.356;2022-10-16T03:41:33;4.47;;;1.90;;
24617;SDS011;12762;51.730;5.356;2022-10-16T03:44:00;3.07;;;1.60;;
24617;SDS011;12762;51.730;5.356;2022-10-16T03:46:27;3.47;;;1.70;;
24617;SDS011;12762;51.730;5.356;2022-10-16T03:48:54;2.87;;;1.57;;
24617;SDS011;12762;51.730;5.356;2022-10-16T03:51:20;3.17;;;1.60;;
24617;SDS011;12762;51.730;5.356;2022-10-16T03:53:50;3.40;;;1.80;;
24617;SDS011;12762;51.730;5.356;2022-10-16T03:56:17;3.30;;;1.70;;
24617;SDS011;12762;51.730;5.356;2022-10-16T03:58:43;3.47;;;1.70;;
24617;SDS011;12762;51.730;5.356;2022-10-16T04:01:13;4.70;;;1.53;;
24617;SDS011;12762;51.730;5.356;2022-10-16T04:03:40;3.83;;;1.60;;
24617;SDS011;12762;51.730;5.356;2022-10-16T04:06:07;4.53;;;1.80;;
24617;SDS011;12762;51.730;5.356;2022-10-16T04:08:34;3.13;;;1.50;;
24617;SDS011;12762;51.730;5.356;2022-10-16T04:11:03;3.47;;;1.67;;
24617;SDS011;12762;51.730;5.356;2022-10-16T04:13:29;2.70;;;1.60;;
24617;SDS011;12762;51.730;5.356;2022-10-16T04:15:56;4.17;;;1.70;;
24617;SDS011;12762;51.730;5.356;2022-10-16T04:18:23;2.63;;;1.70;;
24617;SDS011;12762;51.730;5.356;2022-10-16T04:20:53;4.60;;;1.70;;
24617;SDS011;12762;51.730;5.356;2022-10-16T04:23:20;4.67;;;1.80;;
24617;SDS011;12762;51.730;5.356;2022-10-16T04:25:49;3.10;;;1.50;;
24617;SDS011;12762;51.730;5.356;2022-10-16T04:28:15;3.90;;;1.60;;
24617;SDS011;12762;51.730;5.356;2022-10-16T04:30:42;5.03;;;1.83;;
24617;SDS011;12762;51.730;5.356;2022-10-16T04:33:09;4.30;;;1.67;;
24617;SDS011;12762;51.730;5.356;2022-10-16T04:35:36;3.20;;;1.60;;
24617;SDS011;12762;51.730;5.356;2022-10-16T04:38:03;2.90;;;1.50;;
24617;SDS011;12762;51.730;5.356;2022-10-16T04:40:30;3.23;;;1.50;;
24617;SDS011;12762;51.730;5.356;2022-10-16T04:43:02;4.57;;;1.43;;
24617;SDS011;12762;51.730;5.356;2022-10-16T04:45:30;5.60;;;1.70;;
24617;SDS011;12762;51.730;5.356;2022-10-16T04:47:57;3.27;;;1.70;;
24617;SDS011;12762;51.730;5.356;2022-10-16T04:50:24;3.57;;;1.30;;
24617;SDS011;12762;51.730;5.356;2022-10-16T04:52:54;2.93;;;1.57;;
24617;SDS011;12762;51.730;5.356;2022-10-16T04:55:21;2.43;;;1.47;;
24617;SDS011;12762;51.730;5.356;2022-10-16T04:57:48;4.67;;;2.23;;
24617;SDS011;12762;51.730;5.356;2022-10-16T05:00:15;3.00;;;1.70;;
24617;SDS011;12762;51.730;5.356;2022-10-16T05:02:42;4.13;;;1.60;;
24617;SDS011;12762;51.730;5.356;2022-10-16T05:05:09;2.97;;;1.47;;
24617;SDS011;12762;51.730;5.356;2022-10-16T05:07:36;3.47;;;1.53;;
24617;SDS011;12762;51.730;5.356;2022-10-16T05:10:03;2.87;;;1.43;;
24617;SDS011;12762;51.730;5.356;2022-10-16T05:12:30;2.87;;;1.43;;
24617;SDS011;12762;51.730;5.356;2022-10-16T05:14:57;3.43;;;1.77;;
24617;SDS011;12762;51.730;5.356;2022-10-16T05:17:27;3.33;;;1.60;;
24617;SDS011;12762;51.730;5.356;2022-10-16T05:19:54;4.30;;;1.70;;
24617;SDS011;12762;51.730;5.356;2022-10-16T05:22:21;3.40;;;1.67;;
24617;SDS011;12762;51.730;5.356;2022-10-16T05:24:50;2.77;;;1.40;;
24617;SDS011;12762;51.730;5.356;2022-10-16T05:27:17;2.77;;;1.50;;
24617;SDS011;12762;51.730;5.356;2022-10-16T05:29:47;3.83;;;1.67;;
24617;SDS011;12762;51.730;5.356;2022-10-16T05:32:15;3.33;;;1.80;;
24617;SDS011;12762;51.730;5.356;2022-10-16T05:34:43;2.73;;;1.67;;
24617;SDS011;12762;51.730;5.356;2022-10-16T05:37:11;4.90;;;1.70;;
24617;SDS011;12762;51.730;5.356;2022-10-16T05:39:38;3.80;;;1.40;;
24617;SDS011;12762;51.730;5.356;2022-10-16T05:42:05;6.50;;;1.60;;
24617;SDS011;12762;51.730;5.356;2022-10-16T05:44:32;5.90;;;2.10;;
24617;SDS011;12762;51.730;5.356;2022-10-16T05:47:01;6.87;;;1.70;;
24617;SDS011;12762;51.730;5.356;2022-10-16T05:49:28;4.23;;;1.47;;
24617;SDS011;12762;51.730;5.356;2022-10-16T05:51:54;3.00;;;1.50;;
24617;SDS011;12762;51.730;5.356;2022-10-16T05:54:21;3.23;;;1.70;;
24617;SDS011;12762;51.730;5.356;2022-10-16T05:56:48;4.27;;;1.37;;
24617;SDS011;12762;51.730;5.356;2022-10-16T05:59:15;3.83;;;1.40;;
24617;SDS011;12762;51.730;5.356;2022-10-16T06:01:41;2.67;;;1.37;;
24617;SDS011;12762;51.730;5.356;2022-10-16T06:04:08;4.20;;;1.77;;
24617;SDS011;12762;51.730;5.356;2022-10-16T06:06:36;2.87;;;1.40;;
24617;SDS011;12762;51.730;5.356;2022-10-16T06:09:03;2.90;;;1.70;;
24617;SDS011;12762;51.730;5.356;2022-10-16T06:11:31;4.47;;;1.63;;
24617;SDS011;12762;51.730;5.356;2022-10-16T06:14:02;4.60;;;1.77;;
24617;SDS011;12762;51.730;5.356;2022-10-16T06:16:33;2.40;;;1.60;;
24617;SDS011;12762;51.730;5.356;2022-10-16T06:19:02;2.57;;;1.60;;
24617;SDS011;12762;51.730;5.356;2022-10-16T06:21:32;3.33;;;1.73;;
24617;SDS011;12762;51.730;5.356;2022-10-16T06:23:59;4.83;;;2.00;;
24617;SDS011;12762;51.730;5.356;2022-10-16T06:26:27;3.30;;;1.83;;
24617;SDS011;12762;51.730;5.356;2022-10-16T06:28:56;5.23;;;1.73;;
24617;SDS011;12762;51.730;5.356;2022-10-16T06:31:24;7.67;;;1.90;;
24617;SDS011;12762;51.730;5.356;2022-10-16T06:33:54;3.33;;;1.90;;
24617;SDS011;12762;51.730;5.356;2022-10-16T06:36:22;6.10;;;1.90;;
24617;SDS011;12762;51.730;5.356;2022-10-16T06:38:49;3.80;;;1.77;;
24617;SDS011;12762;51.730;5.356;2022-10-16T06:41:17;4.97;;;1.80;;
24617;SDS011;12762;51.730;5.356;2022-10-16T06:43:46;5.40;;;1.80;;
24617;SDS011;12762;51.730;5.356;2022-10-16T06:46:14;4.27;;;2.07;;
24617;SDS011;12762;51.730;5.356;2022-10-16T06:48:43;3.67;;;1.80;;
24617;SDS011;12762;51.730;5.356;2022-10-16T06:51:14;3.20;;;1.77;;
24617;SDS011;12762;51.730;5.356;2022-10-16T06:53:49;3.93;;;2.00;;
24617;SDS011;12762;51.730;5.356;2022-10-16T06:56:33;4.90;;;2.10;;
24617;SDS011;12762;51.730;5.356;2022-10-16T06:59:00;3.83;;;1.73;;
24617;SDS011;12762;51.730;5.356;2022-10-16T07:01:27;2.73;;;1.87;;
24617;SDS011;12762;51.730;5.356;2022-10-16T07:03:54;4.17;;;1.73;;
24617;SDS011;12762;51.730;5.356;2022-10-16T07:06:22;4.53;;;1.80;;
24617;SDS011;12762;51.730;5.356;2022-10-16T07:08:50;4.47;;;1.80;;
24617;SDS011;12762;51.730;5.356;2022-10-16T07:11:19;3.47;;;1.63;;
24617;SDS011;12762;51.730;5.356;2022-10-16T07:13:48;3.60;;;1.80;;
24617;SDS011;12762;51.730;5.356;2022-10-16T07:16:22;4.10;;;1.70;;
24617;SDS011;12762;51.730;5.356;2022-10-16T07:18:51;5.30;;;1.70;;
24617;SDS011;12762;51.730;5.356;2022-10-16T07:21:24;4.73;;;1.87;;
24617;SDS011;12762;51.730;5.356;2022-10-16T07:23:52;4.73;;;1.80;;
24617;SDS011;12762;51.730;5.356;2022-10-16T07:26:20;6.00;;;1.83;;
24617;SDS011;12762;51.730;5.356;2022-10-16T07:28:47;3.83;;;1.70;;
24617;SDS011;12762;51.730;5.356;2022-10-16T07:31:15;3.40;;;1.80;;
24617;SDS011;12762;51.730;5.356;2022-10-16T07:33:43;3.67;;;1.70;;
24617;SDS011;12762;51.730;5.356;2022-10-16T07:36:11;4.50;;;2.10;;
24617;SDS011;12762;51.730;5.356;2022-10-16T07:38:41;5.40;;;1.93;;
24617;SDS011;12762;51.730;5.356;2022-10-16T07:41:09;3.03;;;1.90;;
24617;SDS011;12762;51.730;5.356;2022-10-16T07:43:40;3.20;;;1.80;;
24617;SDS011;12762;51.730;5.356;2022-10-16T07:46:11;3.70;;;1.80;;
24617;SDS011;12762;51.730;5.356;2022-10-16T07:48:38;4.40;;;1.73;;
24617;SDS011;12762;51.730;5.356;2022-10-16T07:51:05;4.33;;;1.63;;
24617;SDS011;12762;51.730;5.356;2022-10-16T07:53:35;5.33;;;1.83;;
24617;SDS011;12762;51.730;5.356;2022-10-16T07:56:06;4.23;;;1.83;;
24617;SDS011;12762;51.730;5.356;2022-10-16T07:58:34;7.80;;;2.40;;
24617;SDS011;12762;51.730;5.356;2022-10-16T08:01:07;4.30;;;2.10;;
24617;SDS011;12762;51.730;5.356;2022-10-16T08:03:36;5.93;;;1.60;;
24617;SDS011;12762;51.730;5.356;2022-10-16T08:06:06;5.90;;;1.53;;
24617;SDS011;12762;51.730;5.356;2022-10-16T08:08:32;4.23;;;1.50;;
24617;SDS011;12762;51.730;5.356;2022-10-16T08:11:02;5.73;;;1.47;;
24617;SDS011;12762;51.730;5.356;2022-10-16T08:13:32;5.90;;;1.57;;
24617;SDS011;12762;51.730;5.356;2022-10-16T08:15:59;4.30;;;1.50;;
24617;SDS011;12762;51.730;5.356;2022-10-16T08:18:25;5.47;;;1.70;;
24617;SDS011;12762;51.730;5.356;2022-10-16T08:20:56;5.43;;;1.83;;
24617;SDS011;12762;51.730;5.356;2022-10-16T08:23:24;4.47;;;1.60;;
24617;SDS011;12762;51.730;5.356;2022-10-16T08:25:53;7.30;;;1.40;;
24617;SDS011;12762;51.730;5.356;2022-10-16T08:28:27;5.13;;;1.50;;
24617;SDS011;12762;51.730;5.356;2022-10-16T08:30:54;4.37;;;1.47;;
24617;SDS011;12762;51.730;5.356;2022-10-16T08:33:25;3.20;;;1.07;;
24617;SDS011;12762;51.730;5.356;2022-10-16T08:35:52;6.73;;;1.57;;
24617;SDS011;12762;51.730;5.356;2022-10-16T08:38:21;2.07;;;1.23;;
24617;SDS011;12762;51.730;5.356;2022-10-16T08:40:48;3.20;;;1.10;;
24617;SDS011;12762;51.730;5.356;2022-10-16T08:43:31;3.63;;;1.20;;
24617;SDS011;12762;51.730;5.356;2022-10-16T08:46:29;5.87;;;1.40;;
24617;SDS011;12762;51.730;5.356;2022-10-16T08:49:15;6.17;;;1.60;;
24617;SDS011;12762;51.730;5.356;2022-10-16T08:51:45;3.60;;;1.40;;
24617;SDS011;12762;51.730;5.356;2022-10-16T08:57:07;6.87;;;1.50;;
24617;SDS011;12762;51.730;5.356;2022-10-16T08:59:44;5.03;;;1.50;;
24617;SDS011;12762;51.730;5.356;2022-10-16T09:07:46;12.27;;;2.20;;
24617;SDS011;12762;51.730;5.356;2022-10-16T09:13:48;2.53;;;1.10;;
24617;SDS011;12762;51.730;5.356;2022-10-16T09:16:27;4.27;;;1.33;;
24617;SDS011;12762;51.730;5.356;2022-10-16T09:23:57;5.37;;;1.30;;
24617;SDS011;12762;51.730;5.356;2022-10-16T09:26:30;5.77;;;1.10;;
24617;SDS011;12762;51.730;5.356;2022-10-16T09:29:00;7.33;;;1.50;;
24617;SDS011;12762;51.730;5.356;2022-10-16T09:31:27;7.47;;;1.30;;
24617;SDS011;12762;51.730;5.356;2022-10-16T09:33:55;7.20;;;1.20;;
24617;SDS011;12762;51.730;5.356;2022-10-16T09:36:25;8.30;;;1.70;;
24617;SDS011;12762;51.730;5.356;2022-10-16T09:39:04;8.23;;;1.37;;
24617;SDS011;12762;51.730;5.356;2022-10-16T09:41:34;7.70;;;2.43;;
24617;SDS011;12762;51.730;5.356;2022-10-16T09:44:03;4.60;;;1.53;;
24617;SDS011;12762;51.730;5.356;2022-10-16T09:46:40;6.67;;;1.30;;
24617;SDS011;12762;51.730;5.356;2022-10-16T09:49:19;6.97;;;1.43;;
24617;SDS011;12762;51.730;5.356;2022-10-16T09:51:51;5.20;;;1.53;;
24617;SDS011;12762;51.730;5.356;2022-10-16T09:54:35;7.13;;;1.40;;
24617;SDS011;12762;51.730;5.356;2022-10-16T09:57:06;6.50;;;1.30;;
24617;SDS011;12762;51.730;5.356;2022-10-16T09:59:48;8.23;;;1.30;;
24617;SDS011;12762;51.730;5.356;2022-10-16T10:02:18;7.33;;;1.60;;
24617;SDS011;12762;51.730;5.356;2022-10-16T10:04:54;8.37;;;1.60;;
24617;SDS011;12762;51.730;5.356;2022-10-16T10:07:31;7.03;;;1.50;;
24617;SDS011;12762;51.730;5.356;2022-10-16T10:10:02;8.33;;;1.60;;
24617;SDS011;12762;51.730;5.356;2022-10-16T10:12:31;7.43;;;1.43;;
24617;SDS011;12762;51.730;5.356;2022-10-16T10:15:10;8.07;;;1.83;;
24617;SDS011;12762;51.730;5.356;2022-10-16T10:17:46;11.27;;;1.50;;
24617;SDS011;12762;51.730;5.356;2022-10-16T10:22:58;6.37;;;1.40;;
24617;SDS011;12762;51.730;5.356;2022-10-16T10:25:35;6.60;;;1.40;;
24617;SDS011;12762;51.730;5.356;2022-10-16T10:33:53;6.80;;;1.27;;
24617;SDS011;12762;51.730;5.356;2022-10-16T10:39:00;8.53;;;1.50;;
24617;SDS011;12762;51.730;5.356;2022-10-16T10:50:14;11.10;;;1.87;;
24617;SDS011;12762;51.730;5.356;2022-10-16T10:55:37;9.53;;;1.57;;
24617;SDS011;12762;51.730;5.356;2022-10-16T10:58:28;12.47;;;2.07;;
24617;SDS011;12762;51.730;5.356;2022-10-16T11:01:22;9.33;;;1.50;;
24617;SDS011;12762;51.730;5.356;2022-10-16T11:04:24;8.90;;;1.50;;
24617;SDS011;12762;51.730;5.356;2022-10-16T11:07:28;8.53;;;1.60;;
24617;SDS011;12762;51.730;5.356;2022-10-16T11:10:05;14.50;;;1.70;;
24617;SDS011;12762;51.730;5.356;2022-10-16T11:12:40;8.20;;;1.83;;
24617;SDS011;12762;51.730;5.356;2022-10-16T11:15:15;6.30;;;1.33;;
24617;SDS011;12762;51.730;5.356;2022-10-16T11:17:55;8.83;;;1.83;;
24617;SDS011;12762;51.730;5.356;2022-10-16T11:20:40;8.20;;;1.47;;
24617;SDS011;12762;51.730;5.356;2022-10-16T11:23:18;7.30;;;1.53;;
24617;SDS011;12762;51.730;5.356;2022-10-16T11:25:47;5.23;;;1.50;;
24617;SDS011;12762;51.730;5.356;2022-10-16T11:28:19;8.13;;;1.30;;
24617;SDS011;12762;51.730;5.356;2022-10-16T11:33:59;9.97;;;1.90;;
24617;SDS011;12762;51.730;5.356;2022-10-16T11:36:33;9.20;;;1.13;;
24617;SDS011;12762;51.730;5.356;2022-10-16T11:41:55;6.40;;;1.30;;
24617;SDS011;12762;51.730;5.356;2022-10-16T11:47:53;6.77;;;1.30;;
24617;SDS011;12762;51.730;5.356;2022-10-16T11:50:29;7.47;;;1.50;;
24617;SDS011;12762;51.730;5.356;2022-10-16T11:55:48;8.93;;;1.27;;
24617;SDS011;12762;51.730;5.356;2022-10-16T12:00:46;7.80;;;1.50;;
24617;SDS011;12762;51.730;5.356;2022-10-16T12:03:27;9.17;;;1.53;;
24617;SDS011;12762;51.730;5.356;2022-10-16T12:06:18;7.20;;;1.43;;
24617;SDS011;12762;51.730;5.356;2022-10-16T12:08:58;7.03;;;1.30;;
24617;SDS011;12762;51.730;5.356;2022-10-16T12:14:18;10.53;;;1.37;;
24617;SDS011;12762;51.730;5.356;2022-10-16T12:16:50;7.23;;;1.20;;
24617;SDS011;12762;51.730;5.356;2022-10-16T12:19:22;14.47;;;1.90;;
24617;SDS011;12762;51.730;5.356;2022-10-16T12:21:51;10.10;;;1.50;;
24617;SDS011;12762;51.730;5.356;2022-10-16T12:24:36;6.07;;;1.50;;
24617;SDS011;12762;51.730;5.356;2022-10-16T12:27:20;8.87;;;1.23;;
24617;SDS011;12762;51.730;5.356;2022-10-16T12:30:04;7.17;;;1.90;;
24617;SDS011;12762;51.730;5.356;2022-10-16T12:32:36;8.13;;;1.57;;
24617;SDS011;12762;51.730;5.356;2022-10-16T12:35:47;7.40;;;1.37;;
24617;SDS011;12762;51.730;5.356;2022-10-16T12:38:18;5.80;;;1.10;;
24617;SDS011;12762;51.730;5.356;2022-10-16T12:40:55;8.70;;;2.00;;
24617;SDS011;12762;51.730;5.356;2022-10-16T12:48:38;7.47;;;1.50;;
24617;SDS011;12762;51.730;5.356;2022-10-16T12:54:00;9.07;;;1.60;;
24617;SDS011;12762;51.730;5.356;2022-10-16T12:56:33;7.70;;;1.40;;
24617;SDS011;12762;51.730;5.356;2022-10-16T12:59:06;7.83;;;1.63;;
24617;SDS011;12762;51.730;5.356;2022-10-16T13:01:52;8.97;;;1.77;;
24617;SDS011;12762;51.730;5.356;2022-10-16T13:10:25;6.30;;;1.43;;
24617;SDS011;12762;51.730;5.356;2022-10-16T13:27:25;7.47;;;1.30;;
24617;SDS011;12762;51.730;5.356;2022-10-16T13:32:47;7.50;;;1.30;;
24617;SDS011;12762;51.730;5.356;2022-10-16T13:35:31;7.63;;;1.50;;
24617;SDS011;12762;51.730;5.356;2022-10-16T13:38:10;5.93;;;1.83;;
24617;SDS011;12762;51.730;5.356;2022-10-16T13:40:55;8.20;;;1.30;;
24617;SDS011;12762;51.730;5.356;2022-10-16T13:44:13;5.73;;;1.47;;
24617;SDS011;12762;51.730;5.356;2022-10-16T13:46:20;8.03;;;1.80;;
24617;SDS011;12762;51.730;5.356;2022-10-16T13:48:57;9.33;;;1.60;;
24617;SDS011;12762;51.730;5.356;2022-10-16T13:51:26;6.90;;;1.30;;
24617;SDS011;12762;51.730;5.356;2022-10-16T13:53:54;6.60;;;1.40;;
24617;SDS011;12762;51.730;5.356;2022-10-16T13:56:26;5.97;;;1.43;;
24617;SDS011;12762;51.730;5.356;2022-10-16T13:58:59;5.50;;;1.13;;
24617;SDS011;12762;51.730;5.356;2022-10-16T14:01:48;10.33;;;1.87;;
24617;SDS011;12762;51.730;5.356;2022-10-16T14:04:18;5.83;;;1.40;;
24617;SDS011;12762;51.730;5.356;2022-10-16T14:06:45;5.87;;;1.13;;
24617;SDS011;12762;51.730;5.356;2022-10-16T14:09:22;9.00;;;1.37;;
24617;SDS011;12762;51.730;5.356;2022-10-16T14:12:01;4.87;;;1.53;;
24617;SDS011;12762;51.730;5.356;2022-10-16T14:14:41;6.50;;;1.30;;
24617;SDS011;12762;51.730;5.356;2022-10-16T14:17:14;6.23;;;1.53;;
24617;SDS011;12762;51.730;5.356;2022-10-16T14:19:53;3.97;;;0.90;;
24617;SDS011;12762;51.730;5.356;2022-10-16T14:22:30;5.30;;;1.53;;
24617;SDS011;12762;51.730;5.356;2022-10-16T14:30:49;5.87;;;1.37;;
24617;SDS011;12762;51.730;5.356;2022-10-16T14:36:10;10.10;;;1.40;;
24617;SDS011;12762;51.730;5.356;2022-10-16T14:38:40;7.77;;;1.30;;
24617;SDS011;12762;51.730;5.356;2022-10-16T14:41:09;9.23;;;1.73;;
24617;SDS011;12762;51.730;5.356;2022-10-16T14:43:37;5.27;;;1.53;;
24617;SDS011;12762;51.730;5.356;2022-10-16T14:46:12;4.47;;;1.20;;
24617;SDS011;12762;51.730;5.356;2022-10-16T14:48:41;6.90;;;1.30;;
24617;SDS011;12762;51.730;5.356;2022-10-16T14:51:13;7.00;;;1.20;;
24617;SDS011;12762;51.730;5.356;2022-10-16T14:53:41;8.93;;;2.53;;
24617;SDS011;12762;51.730;5.356;2022-10-16T14:56:08;4.57;;;1.30;;
24617;SDS011;12762;51.730;5.356;2022-10-16T14:58:43;3.60;;;1.10;;
24617;SDS011;12762;51.730;5.356;2022-10-16T15:01:10;4.20;;;1.07;;
24617;SDS011;12762;51.730;5.356;2022-10-16T15:03:38;8.10;;;1.33;;
24617;SDS011;12762;51.730;5.356;2022-10-16T15:06:09;4.30;;;1.10;;
24617;SDS011;12762;51.730;5.356;2022-10-16T15:08:38;7.27;;;1.10;;
24617;SDS011;12762;51.730;5.356;2022-10-16T15:11:05;6.97;;;1.20;;
24617;SDS011;12762;51.730;5.356;2022-10-16T15:13:45;8.37;;;1.53;;
24617;SDS011;12762;51.730;5.356;2022-10-16T15:16:15;6.33;;;1.50;;
24617;SDS011;12762;51.730;5.356;2022-10-16T15:18:42;8.60;;;1.43;;
24617;SDS011;12762;51.730;5.356;2022-10-16T15:21:25;9.33;;;1.67;;
24617;SDS011;12762;51.730;5.356;2022-10-16T15:23:54;3.87;;;1.27;;
24617;SDS011;12762;51.730;5.356;2022-10-16T15:26:26;8.23;;;1.90;;
24617;SDS011;12762;51.730;5.356;2022-10-16T15:28:53;5.27;;;1.10;;
24617;SDS011;12762;51.730;5.356;2022-10-16T15:31:21;5.43;;;1.20;;
24617;SDS011;12762;51.730;5.356;2022-10-16T15:33:52;5.87;;;1.60;;
24617;SDS011;12762;51.730;5.356;2022-10-16T15:36:25;10.50;;;1.70;;
24617;SDS011;12762;51.730;5.356;2022-10-16T15:38:53;4.40;;;1.60;;
24617;SDS011;12762;51.730;5.356;2022-10-16T15:41:20;5.40;;;1.33;;
24617;SDS011;12762;51.730;5.356;2022-10-16T15:43:48;7.37;;;1.53;;
24617;SDS011;12762;51.730;5.356;2022-10-16T15:46:19;8.67;;;1.90;;
24617;SDS011;12762;51.730;5.356;2022-10-16T15:48:48;3.53;;;1.10;;
24617;SDS011;12762;51.730;5.356;2022-10-16T15:51:16;7.10;;;1.40;;
24617;SDS011;12762;51.730;5.356;2022-10-16T15:53:44;8.40;;;1.40;;
24617;SDS011;12762;51.730;5.356;2022-10-16T15:56:12;5.53;;;1.63;;
24617;SDS011;12762;51.730;5.356;2022-10-16T15:58:40;8.73;;;1.83;;
24617;SDS011;12762;51.730;5.356;2022-10-16T16:01:06;8.67;;;1.80;;
24617;SDS011;12762;51.730;5.356;2022-10-16T16:03:36;8.80;;;2.13;;
24617;SDS011;12762;51.730;5.356;2022-10-16T16:06:07;5.77;;;1.60;;
24617;SDS011;12762;51.730;5.356;2022-10-16T16:08:35;7.63;;;1.90;;
24617;SDS011;12762;51.730;5.356;2022-10-16T16:11:06;5.40;;;1.60;;
24617;SDS011;12762;51.730;5.356;2022-10-16T16:13:38;4.57;;;1.60;;
24617;SDS011;12762;51.730;5.356;2022-10-16T16:16:06;6.70;;;1.53;;
24617;SDS011;12762;51.730;5.356;2022-10-16T16:18:33;4.97;;;1.80;;
24617;SDS011;12762;51.730;5.356;2022-10-16T16:21:00;9.07;;;1.60;;
24617;SDS011;12762;51.730;5.356;2022-10-16T16:23:27;8.77;;;1.93;;
24617;SDS011;12762;51.730;5.356;2022-10-16T16:26:04;7.30;;;2.00;;
24617;SDS011;12762;51.730;5.356;2022-10-16T16:28:34;7.03;;;2.30;;
24617;SDS011;12762;51.730;5.356;2022-10-16T16:31:02;7.43;;;2.03;;
24617;SDS011;12762;51.730;5.356;2022-10-16T16:33:30;9.20;;;2.20;;
24617;SDS011;12762;51.730;5.356;2022-10-16T16:35:58;7.67;;;2.07;;
24617;SDS011;12762;51.730;5.356;2022-10-16T16:38:26;8.10;;;1.80;;
24617;SDS011;12762;51.730;5.356;2022-10-16T16:40:54;5.90;;;1.73;;
24617;SDS011;12762;51.730;5.356;2022-10-16T16:43:25;6.57;;;2.17;;
24617;SDS011;12762;51.730;5.356;2022-10-16T16:45:53;7.13;;;2.43;;
24617;SDS011;12762;51.730;5.356;2022-10-16T16:48:20;4.97;;;1.83;;
24617;SDS011;12762;51.730;5.356;2022-10-16T16:50:47;8.27;;;1.70;;
24617;SDS011;12762;51.730;5.356;2022-10-16T16:53:14;3.93;;;1.40;;
24617;SDS011;12762;51.730;5.356;2022-10-16T16:55:41;6.13;;;2.20;;